Time;durP1;ratioP1;P1;durP2;ratioP2;P2;SDS_P1;SDS_P2;PMS_P1;PMS_P2;Temp;Humidity;BMP_temperature;BMP_pressure;BME280_temperature;BME280_humidity;BME280_pressure;Samples;Min_cycle;Max_cycle;Signal;HPM_P1;HPM_P2
2022/09/23 00:01:19;;;;;;;13.68;9.63;;;;;;;;;;4938444;28;20058;-82
2022/09/23 00:03:45;;;;;;;10.43;9.32;;;;;;;8.12;100.00;67676.22;4946541;29;20054;-82
2022/09/23 00:06:12;;;;;;;11.70;9.65;;;;;;;;;;4927744;29;20622;-82
2022/09/23 00:08:38;;;;;;;12.68;9.48;;;;;;;8.09;100.00;67672.81;4955906;28;20047;-81
2022/09/23 00:11:32;;;;;;;11.30;9.93;;;;;;;;;;4951947;28;20642;-81
2022/09/23 00:13:58;;;;;;;11.43;10.23;;;;;;;;;;4938895;29;20046;-81
2022/09/23 00:16:31;;;;;;;10.40;9.38;;;;;;;8.01;100.00;67663.75;4949397;28;20229;-81
2022/09/23 00:18:57;;;;;;;11.35;9.57;;;;;;;8.00;100.00;67662.59;4934949;29;20050;-82
2022/09/23 00:21:24;;;;;;;12.32;10.30;;;;;;;7.96;100.00;67658.09;4950870;28;20058;-83
2022/09/23 00:23:49;;;;;;;11.20;10.10;;;;;;;;;;4952655;28;20062;-82
2022/09/23 00:26:15;;;;;;;12.73;10.90;;;;;;;;;;4948483;28;20050;-81
2022/09/23 00:28:40;;;;;;;13.23;10.65;;;;;;;;;;4952535;28;20058;-81
2022/09/23 00:31:09;;;;;;;11.15;9.95;;;;;;;;;;4953441;28;20039;-81
2022/09/23 00:33:34;;;;;;;12.40;10.35;;;;;;;8.04;100.00;67661.84;4953130;28;20242;-83
2022/09/23 00:36:04;;;;;;;13.05;10.20;;;;;;;8.07;100.00;67665.81;4952405;28;20051;-82
2022/09/23 00:38:30;;;;;;;11.52;10.35;;;;;;;8.03;100.00;67666.59;4953332;28;20050;-83
2022/09/23 00:40:57;;;;;;;12.02;10.65;;;;;;;8.04;100.00;67667.16;4953669;28;20035;-83
2022/09/23 00:43:42;;;;;;;13.23;10.73;;;;;;;7.97;100.00;67659.78;4946489;28;20105;-82
2022/09/23 00:46:10;;;;;;;13.05;10.27;;;;;;;8.01;100.00;67658.44;4954662;28;20035;-82
2022/09/23 00:48:39;;;;;;;12.98;10.60;;;;;;;8.03;100.00;67661.28;4954021;28;20055;-84
2022/09/23 00:51:06;;;;;;;;;;;;;;;8.08;100.00;67666.94;4958680;28;20569;-84
2022/09/23 00:53:33;;;;;;;13.90;11.50;;;;;;;8.02;100.00;67664.88;4955446;28;19998;-83
2022/09/23 00:56:01;;;;;;;12.68;11.32;;;;;;;;;;4957659;28;20059;-85
2022/09/23 00:58:30;;;;;;;11.45;10.25;;;;;;;8.06;100.00;67669.97;4955868;28;20130;-84
2022/09/23 01:00:59;;;;;;;10.52;9.43;;;;;;;8.10;100.00;67673.94;4957847;28;20125;-84
2022/09/23 01:03:24;;;;;;;11.75;10.18;;;;;;;8.06;100.00;67674.72;4953551;28;20047;-84
2022/09/23 01:05:51;;;;;;;11.75;10.20;;;;;;;8.04;100.00;67672.44;4939610;28;20051;-83
2022/09/23 01:08:17;;;;;;;12.45;10.50;;;;;;;;;;4954670;28;20043;-83
2022/09/23 01:11:20;;;;;;;11.88;10.18;;;;;;;8.07;100.00;67671.09;4985153;28;20043;-83
2022/09/23 01:14:04;;;;;;;13.73;9.95;;;;;;;8.02;100.00;67665.44;4953047;28;20437;-84
2022/09/23 01:16:44;;;;;;;13.90;9.95;;;;;;;8.06;100.00;67669.97;4968649;28;20074;-84
2022/09/23 01:19:35;;;;;;;15.18;11.75;;;;;;;8.07;100.00;67673.19;4942946;28;20511;-84
2022/09/23 01:22:18;;;;;;;11.75;9.93;;;;;;;;;;4930230;28;20463;-83
2022/09/23 01:24:52;;;;;;;12.00;10.70;;;;;;;8.00;100.00;67662.59;4946304;29;20138;-84
2022/09/23 01:27:35;;;;;;;11.52;10.32;;;;;;;;;;4955927;28;20097;-83
2022/09/23 01:30:19;;;;;;;14.80;10.57;;;;;;;8.00;100.00;67662.59;4976011;28;20053;-83
2022/09/23 01:33:03;;;;;;;13.95;10.70;;;;;;;;;;4969850;28;20039;-84
2022/09/23 01:35:36;;;;;;;11.30;10.10;;;;;;;7.99;100.00;67653.53;4956461;28;20051;-85
2022/09/23 01:38:13;;;;;;;13.80;10.40;;;;;;;8.01;100.00;67663.75;4956866;28;20566;-84
2022/09/23 01:40:39;;;;;;;12.32;9.65;;;;;;;8.01;100.00;67663.75;4966894;28;20047;-84
2022/09/23 01:43:27;;;;;;;11.40;10.20;;;;;;;8.00;100.00;67662.59;4975917;28;20186;-83
2022/09/23 01:45:56;;;;;;;10.98;9.20;;;;;;;8.05;100.00;67663.53;4964245;28;20051;-83
2022/09/23 01:48:45;;;;;;;12.00;10.63;;;;;;;8.02;100.00;67664.88;4972865;28;20057;-83
2022/09/23 01:51:21;;;;;;;14.48;10.85;;;;;;;8.05;100.00;67668.28;4974891;28;20046;-84
2022/09/23 01:53:52;;;;;;;12.45;10.55;;;;;;;;;;4965879;28;20546;-84
2022/09/23 01:56:38;;;;;;;12.85;11.07;;;;;;;8.05;100.00;67668.28;4971192;28;20047;-84
2022/09/23 01:59:13;;;;;;;11.45;10.25;;;;;;;8.13;100.00;67677.91;4973089;28;20066;-84
2022/09/23 02:01:52;;;;;;;12.43;10.52;;;;;;;8.11;100.00;67669.75;4957203;28;20046;-84
2022/09/23 02:04:21;;;;;;;;;;;;;;;8.07;100.00;67671.09;4972437;28;20050;-83
2022/09/23 02:07:14;;;;;;;13.30;10.05;;;;;;;7.97;100.00;67659.22;4974220;28;19922;-84
2022/09/23 02:09:44;;;;;;;15.88;10.90;;;;;;;8.01;100.00;67664.31;4976034;28;20046;-83
2022/09/23 02:12:19;;;;;;;14.73;10.68;;;;;;;8.01;100.00;67663.75;4974112;28;20039;-84
2022/09/23 02:15:13;;;;;;;11.63;10.32;;;;;;;8.06;100.00;67669.41;4956016;28;20039;-84
2022/09/23 02:17:48;;;;;;;10.70;9.60;;;;;;;8.17;100.00;67681.28;4952815;28;20580;-84
2022/09/23 02:20:21;;;;;;;12.45;9.23;;;;;;;8.24;100.00;67689.81;4970983;28;20047;-83
2022/09/23 02:22:49;;;;;;;12.18;9.25;;;;;;;;;;4985466;28;20104;-82
2022/09/23 02:25:16;;;;;;;10.68;9.50;;;;;;;;;;4952521;28;20114;-83
2022/09/23 02:28:00;;;;;;;10.48;8.90;;;;;;;8.26;100.00;67686.75;4953226;28;20040;-83
2022/09/23 02:30:28;;;;;;;12.73;9.73;;;;;;;;;;4951404;28;20511;-83
2022/09/23 02:33:06;;;;;;;11.30;9.40;;;;;;;8.27;100.00;67695.28;4955143;28;20086;-83
2022/09/23 02:35:31;;;;;;;10.30;9.07;;;;;;;8.24;100.00;67689.81;4952620;28;20501;-82
2022/09/23 02:38:03;;;;;;;11.13;9.18;;;;;;;;;;4968122;28;20127;-83
2022/09/23 02:40:33;;;;;;;10.20;9.07;;;;;;;8.19;100.00;67688.88;4943124;28;20054;-83
2022/09/23 02:43:18;;;;;;;13.25;9.80;;;;;;;8.17;100.00;67681.28;4954984;28;20051;-82
2022/09/23 02:45:45;;;;;;;9.93;8.63;;;;;;;8.16;100.00;67680.72;4956188;28;20077;-83
2022/09/23 02:48:25;;;;;;;11.68;9.57;;;;;;;8.06;100.00;67669.41;4963432;28;20175;-84
2022/09/23 02:50:52;;;;;;;11.98;10.05;;;;;;;8.00;100.00;67662.59;4971208;28;20125;-83
2022/09/23 02:53:17;;;;;;;12.60;9.07;;;;;;;8.00;100.00;67662.59;4976451;28;20046;-84
2022/09/23 02:55:43;;;;;;;14.48;9.48;;;;;;;;;;4983509;28;20043;-83
2022/09/23 02:58:12;;;;;;;14.88;11.10;;;;;;;7.88;100.00;67649.59;4988438;28;20047;-84
2022/09/23 03:00:44;;;;;;;12.25;10.20;;;;;;;;;;4989059;28;20039;-85
2022/09/23 03:03:18;;;;;;;12.07;9.95;;;;;;;7.79;100.00;67642.63;4988636;28;20097;-83
2022/09/23 03:05:55;;;;;;;14.13;10.90;;;;;;;7.75;100.00;67637.53;4988130;28;20050;-83
2022/09/23 03:08:41;;;;;;;12.43;10.10;;;;;;;7.76;100.00;67630.72;4981323;28;20059;-82
2022/09/23 03:11:12;;;;;;;11.25;9.88;;;;;;;;;;4979160;28;20049;-82
2022/09/23 03:13:47;;;;;;;12.30;10.05;;;;;;;7.76;100.00;67636.00;4976031;28;20110;-83
2022/09/23 03:16:23;;;;;;;12.10;10.18;;;;;;;7.67;100.00;67621.09;4976681;28;20035;-83
2022/09/23 03:19:13;;;;;;;14.80;11.02;;;;;;;7.67;100.00;67626.94;4974299;28;20677;-82
2022/09/23 03:22:07;;;;;;;12.88;11.20;;;;;;;7.58;100.00;67616.19;4976929;28;20039;-81
2022/09/23 03:24:34;;;;;;;13.13;10.68;;;;;;;7.54;100.00;67614.31;4969131;28;20039;-83
2022/09/23 03:27:04;;;;;;;12.55;10.77;;;;;;;7.51;100.00;67610.91;4974771;28;20043;-83
2022/09/23 03:29:31;;;;;;;13.32;11.55;;;;;;;7.55;100.00;67613.38;4973330;28;20054;-81
2022/09/23 03:31:57;;;;;;;11.88;10.32;;;;;;;;;;4958631;28;20502;-83
2022/09/23 03:34:25;;;;;;;13.57;11.10;;;;;;;;;;4961661;28;20042;-81
2022/09/23 03:37:06;;;;;;;14.00;10.18;;;;;;;7.52;100.00;67609.97;4956733;28;20032;-82
2022/09/23 03:39:31;;;;;;;13.93;10.57;;;;;;;;;;4951051;28;20435;-82
2022/09/23 03:42:03;;;;;;;11.98;10.77;;;;;;;7.42;100.00;67599.22;4967756;28;20078;-81
2022/09/23 03:44:28;;;;;;;13.75;11.10;;;;;;;7.45;100.00;67607.91;4964080;28;20043;-82
2022/09/23 03:46:58;;;;;;;11.80;9.65;;;;;;;7.44;100.00;67601.47;4952660;28;20046;-82
2022/09/23 03:49:27;;;;;;;13.20;10.05;;;;;;;7.42;100.00;67601.28;4956289;28;20150;-82
2022/09/23 03:51:52;;;;;;;13.27;10.98;;;;;;;;;;4941320;28;20395;-83
2022/09/23 03:54:19;;;;;;;12.07;10.73;;;;;;;;;;4939789;28;20122;-83
2022/09/23 03:56:46;;;;;;;15.77;10.73;;;;;;;;;;4976647;28;20127;-82
2022/09/23 03:59:13;;;;;;;13.95;10.90;;;;;;;7.45;100.00;67605.28;4962876;28;20044;-79
2022/09/23 04:01:40;;;;;;;10.88;9.55;;;;;;;7.48;100.00;67605.47;4957490;28;20070;-79
2022/09/23 04:04:07;;;;;;;12.43;9.90;;;;;;;7.44;100.00;67601.47;4974379;28;20085;-80
2022/09/23 04:06:32;;;;;;;12.90;10.32;;;;;;;;;;4973195;28;20077;-81
2022/09/23 04:08:57;;;;;;;13.20;10.15;;;;;;;;;;4974848;28;20039;-80
2022/09/23 04:11:22;;;;;;;14.70;10.35;;;;;;;;;;4964772;28;20053;-82
2022/09/23 04:13:48;;;;;;;13.85;10.38;;;;;;;7.31;100.00;67591.50;4953971;28;20053;-81
2022/09/23 04:16:13;;;;;;;13.40;10.30;;;;;;;7.33;100.00;67588.47;4953057;28;20091;-78
2022/09/23 04:18:39;;;;;;;12.40;10.00;;;;;;;7.27;100.00;67576.38;4954321;28;20047;-81
2022/09/23 04:21:04;;;;;;;12.68;10.57;;;;;;;7.29;100.00;67584.50;4955123;28;20119;-82
2022/09/23 04:23:29;;;;;;;13.00;10.30;;;;;;;7.40;100.00;67599.59;4963547;28;20043;-82
2022/09/23 04:25:55;;;;;;;14.02;10.73;;;;;;;7.33;100.00;67589.03;4974311;28;20046;-82
2022/09/23 04:28:20;;;;;;;12.23;9.82;;;;;;;;;;4966758;28;20047;-83
2022/09/23 04:30:47;;;;;;;13.95;10.73;;;;;;;7.36;100.00;67591.84;4968051;28;20130;-82
2022/09/23 04:33:14;;;;;;;14.25;10.30;;;;;;;7.38;100.00;67594.69;4951451;28;20043;-81
2022/09/23 04:35:41;;;;;;;13.20;10.70;;;;;;;;;;4952079;28;20043;-81
2022/09/23 04:38:08;;;;;;;11.60;9.90;;;;;;;7.48;100.00;67605.47;4951954;28;20507;-82
2022/09/23 04:40:34;;;;;;;13.82;9.95;;;;;;;;;;4951824;28;20043;-81
2022/09/23 04:43:00;;;;;;;13.35;9.82;;;;;;;7.51;100.00;67613.56;4952459;28;20047;-82
2022/09/23 04:45:25;;;;;;;11.77;8.93;;;;;;;7.49;100.00;67606.03;4970476;28;20045;-82
2022/09/23 04:47:50;;;;;;;15.93;9.75;;;;;;;7.51;100.00;67608.84;4971414;28;20137;-80
2022/09/23 04:50:16;;;;;;;14.75;9.88;;;;;;;7.52;100.00;67604.13;4975767;28;20475;-83
2022/09/23 04:52:41;;;;;;;11.77;9.23;;;;;;;7.58;100.00;67616.19;4974175;28;20038;-83
2022/09/23 04:55:07;;;;;;;12.68;9.75;;;;;;;7.54;100.00;67612.25;4977639;28;20105;-83
2022/09/23 04:57:33;;;;;;;11.77;8.80;;;;;;;;;;4972172;28;20035;-84
2022/09/23 04:59:59;;;;;;;13.38;9.88;;;;;;;7.51;100.00;67608.84;4974976;28;20105;-83
2022/09/23 05:02:25;;;;;;;10.68;9.43;;;;;;;;;;4967452;28;20089;-83
2022/09/23 05:04:50;;;;;;;12.07;9.15;;;;;;;7.42;100.00;67601.88;4968077;28;20046;-81
2022/09/23 05:07:17;;;;;;;14.25;10.75;;;;;;;7.55;100.00;67618.66;4975846;28;20097;-83
2022/09/23 05:09:42;;;;;;;13.30;9.82;;;;;;;7.58;100.00;67616.19;4976824;28;20039;-83
2022/09/23 05:12:08;;;;;;;10.68;9.30;;;;;;;;;;4976857;28;20177;-81
2022/09/23 05:14:33;;;;;;;11.48;9.27;;;;;;;7.44;100.00;67604.13;4973925;28;20066;-81
2022/09/23 05:16:58;;;;;;;12.40;9.85;;;;;;;7.47;100.00;67604.88;4959187;28;20045;-82
2022/09/23 05:19:24;;;;;;;14.82;9.68;;;;;;;;;;4973336;28;20461;-82
2022/09/23 05:21:49;;;;;;;12.15;10.25;;;;;;;7.29;100.00;67583.94;4976208;28;20620;-82
2022/09/23 05:24:15;;;;;;;12.88;10.23;;;;;;;7.20;100.00;67576.97;4967882;28;20053;-81
2022/09/23 05:26:41;;;;;;;14.30;11.27;;;;;;;7.16;100.00;67570.38;4973826;28;20169;-83
2022/09/23 05:29:06;;;;;;;14.07;11.35;;;;;;;7.17;100.00;67571.50;4975129;28;20041;-84
2022/09/23 05:31:32;;;;;;;16.92;11.52;;;;;;;7.14;100.00;67568.09;4969050;28;20162;-83
2022/09/23 05:34:00;;;;;;;14.88;11.30;;;;;;;7.17;100.00;67565.66;4957930;28;20035;-83
2022/09/23 05:36:26;;;;;;;16.42;11.80;;;;;;;;;;4972800;28;20057;-83
2022/09/23 05:38:51;;;;;;;13.40;11.13;;;;;;;;;;4975781;28;20046;-82
2022/09/23 05:41:19;;;;;;;14.98;11.73;;;;;;;7.06;100.00;67558.50;4959324;28;20042;-82
2022/09/23 05:43:46;;;;;;;13.07;11.43;;;;;;;7.11;100.00;67566.78;4959415;28;20548;-83
2022/09/23 05:46:11;;;;;;;14.30;12.18;;;;;;;;;;4974841;28;20126;-82
2022/09/23 05:48:37;;;;;;;16.03;11.10;;;;;;;;;;4961669;28;20067;-82
2022/09/23 05:51:03;;;;;;;14.60;11.48;;;;;;;7.08;100.00;67561.31;4973192;28;20302;-82
2022/09/23 05:53:29;;;;;;;14.15;11.60;;;;;;;7.11;100.00;67566.78;4968883;28;20053;-82
2022/09/23 05:55:56;;;;;;;15.27;12.60;;;;;;;7.14;100.00;67567.53;4976405;28;20046;-82
2022/09/23 05:58:23;;;;;;;17.17;13.07;;;;;;;7.15;100.00;67563.38;4974652;28;20780;-83
2022/09/23 06:00:49;;;;;;;15.48;12.85;;;;;;;7.17;100.00;67570.94;4970959;28;20047;-83
2022/09/23 06:03:15;;;;;;;18.70;13.70;;;;;;;;;;4972287;28;20049;-83
2022/09/23 06:05:40;;;;;;;16.08;12.88;;;;;;;;;;4971388;28;20047;-82
2022/09/23 06:08:07;;;;;;;14.48;12.98;;;;;;;7.35;100.00;67593.94;4975367;28;20077;-82
2022/09/23 06:10:40;;;;;;;18.23;13.50;;;;;;;7.47;100.00;67604.31;4973732;28;20130;-82
2022/09/23 06:13:07;;;;;;;16.35;13.43;;;;;;;7.59;100.00;67617.31;4972387;28;20046;-83
2022/09/23 06:15:33;;;;;;;14.82;12.73;;;;;;;7.68;100.00;67627.50;4971848;28;20047;-82
2022/09/23 06:17:58;;;;;;;14.35;11.65;;;;;;;;;;4972243;28;20042;-82
2022/09/23 06:20:23;;;;;;;13.27;11.65;;;;;;;;;;4966006;28;20103;-83
2022/09/23 06:22:49;;;;;;;12.77;10.68;;;;;;;;;;4957178;28;20047;-83
2022/09/23 06:25:14;;;;;;;13.80;10.68;;;;;;;8.21;100.00;67678.44;4955600;28;20043;-83
2022/09/23 06:27:40;;;;;;;14.43;9.70;;;;;;;8.36;100.00;67708.13;4956415;28;20140;-83
2022/09/23 06:30:05;;;;;;;12.13;8.95;;;;;;;;;;4958459;28;20042;-82
2022/09/23 06:32:31;;;;;;;11.80;8.15;;;;;;;;;;4959191;28;20047;-83
2022/09/23 06:34:56;;;;;;;12.57;8.73;;;;;;;;;;4971151;28;20753;-83
2022/09/23 06:37:23;;;;;;;9.13;7.55;;;;;;;9.02;98.87;67771.19;4951468;28;20063;-82
2022/09/23 06:39:48;;;;;;;10.10;7.10;;;;;;;;;;4967112;28;20074;-83
2022/09/23 06:42:15;;;;;;;10.02;6.82;;;;;;;;;;4977120;28;20049;-82
2022/09/23 06:44:40;;;;;;;8.07;6.78;;;;;;;;;;4973452;28;20075;-83
2022/09/23 06:47:05;;;;;;;10.85;6.93;;;;;;;;;;4975564;28;20082;-83
2022/09/23 06:49:30;;;;;;;8.45;6.88;;;;;;;;;;4976081;28;20043;-82
2022/09/23 06:51:56;;;;;;;14.05;7.45;;;;;;;9.82;94.22;67859.03;4977741;28;20102;-82
2022/09/23 06:54:21;;;;;;;12.43;7.43;;;;;;;9.91;94.13;67874.56;4976765;28;20137;-82
2022/09/23 06:56:46;;;;;;;11.50;6.75;;;;;;;;;;4976397;28;20073;-83
2022/09/23 06:59:15;;;;;;;10.07;6.82;;;;;;;10.06;92.77;67885.69;4978013;28;20083;-83
2022/09/23 07:01:41;;;;;;;12.10;6.45;;;;;;;10.16;92.15;67902.94;4977720;28;20050;-82
2022/09/23 07:04:09;;;;;;;10.27;6.15;;;;;;;10.23;91.99;67904.41;4981563;28;20102;-83
2022/09/23 07:06:34;;;;;;;7.68;5.28;;;;;;;;;;4979865;28;20045;-82
2022/09/23 07:08:59;;;;;;;9.55;5.90;;;;;;;10.43;90.92;67932.44;4982308;28;20047;-82
2022/09/23 07:11:25;;;;;;;10.18;6.00;;;;;;;10.51;90.89;67940.97;4982316;28;20069;-82
2022/09/23 07:13:51;;;;;;;8.57;5.72;;;;;;;10.55;90.68;67945.50;4982680;28;20054;-82
2022/09/23 07:16:16;;;;;;;11.35;5.80;;;;;;;10.61;89.16;67947.53;4970592;28;20334;-82
2022/09/23 07:18:42;;;;;;;9.85;5.07;;;;;;;10.68;90.15;67959.69;4975151;28;20051;-83
2022/09/23 07:21:16;;;;;;;8.73;5.05;;;;;;;10.77;90.44;67969.91;4979584;28;20035;-83
2022/09/23 07:23:43;;;;;;;7.97;4.95;;;;;;;10.81;89.27;67975.00;4975805;28;20047;-82
2022/09/23 07:26:08;;;;;;;8.45;5.60;;;;;;;;;;4975652;28;20038;-82
2022/09/23 07:28:35;;;;;;;9.52;5.70;;;;;;;10.94;88.79;67989.19;4976835;28;20051;-83
2022/09/23 07:31:06;;;;;;;8.65;5.40;;;;;;;11.01;88.07;67991.81;4976264;28;20098;-83
2022/09/23 07:33:33;;;;;;;8.88;5.45;;;;;;;11.05;87.51;68004.34;4977215;28;20047;-82
2022/09/23 07:36:02;;;;;;;8.85;5.25;;;;;;;11.15;87.67;68003.91;4980670;28;20050;-82
2022/09/23 07:38:28;;;;;;;7.32;5.50;;;;;;;11.18;86.96;68015.88;4995514;28;20116;-83
2022/09/23 07:40:58;;;;;;;11.00;5.25;;;;;;;;;;4968921;28;20050;-83
2022/09/23 07:43:26;;;;;;;8.95;5.68;;;;;;;11.36;88.01;68030.41;4952851;28;20051;-83
2022/09/23 07:45:51;;;;;;;8.52;5.60;;;;;;;;;;4952237;28;20043;-83
2022/09/23 07:48:16;;;;;;;8.77;5.60;;;;;;;11.41;86.10;68036.09;4953525;28;20043;-83
2022/09/23 07:50:41;;;;;;;7.65;5.60;;;;;;;11.45;86.39;68048.63;4953403;28;20055;-83
2022/09/23 07:53:07;;;;;;;8.50;6.00;;;;;;;;;;4951942;28;20054;-83
2022/09/23 07:55:33;;;;;;;8.48;5.40;;;;;;;11.54;85.82;68050.28;4951232;28;20514;-84
2022/09/23 07:57:59;;;;;;;8.75;5.60;;;;;;;;;;4953235;28;20134;-83
2022/09/23 08:00:24;;;;;;;8.98;5.65;;;;;;;11.62;85.29;68064.69;4953176;28;20118;-83
2022/09/23 08:02:51;;;;;;;11.75;5.60;;;;;;;11.68;85.32;68066.19;4949246;28;20043;-83
2022/09/23 08:05:16;;;;;;;9.73;5.60;;;;;;;11.74;85.33;68069.78;4948227;28;20085;-83
2022/09/23 08:07:41;;;;;;;13.32;6.28;;;;;;;11.79;84.50;68082.88;4948778;28;20047;-83
2022/09/23 08:10:07;;;;;;;12.02;5.75;;;;;;;;;;4984398;28;20054;-84
2022/09/23 08:12:32;;;;;;;10.90;6.18;;;;;;;11.90;84.44;68090.06;4955914;28;20117;-82
2022/09/23 08:14:59;;;;;;;10.38;6.00;;;;;;;11.97;84.96;68098.03;4952523;28;20053;-84
2022/09/23 08:17:25;;;;;;;13.05;5.55;;;;;;;12.06;85.08;68107.69;4950878;28;20047;-83
2022/09/23 08:19:50;;;;;;;10.20;5.55;;;;;;;;;;4954781;28;20157;-83
2022/09/23 08:22:15;;;;;;;7.78;5.03;;;;;;;;;;4955069;28;20050;-83
2022/09/23 08:24:41;;;;;;;9.05;5.32;;;;;;;;;;4948887;28;20491;-83
2022/09/23 08:27:06;;;;;;;9.63;5.63;;;;;;;12.29;84.24;68133.81;4953565;28;20039;-84
2022/09/23 08:29:32;;;;;;;8.88;5.72;;;;;;;12.33;83.78;68143.69;4952495;28;20419;-84
2022/09/23 08:31:57;;;;;;;7.35;5.18;;;;;;;;;;4951082;28;20403;-83
2022/09/23 08:34:25;;;;;;;10.32;5.60;;;;;;;;;;4945020;28;20118;-83
2022/09/23 08:36:51;;;;;;;11.40;5.30;;;;;;;;;;4943544;28;20043;-84
2022/09/23 08:39:17;;;;;;;8.05;5.00;;;;;;;;;;4951822;28;20062;-84
2022/09/23 08:41:52;;;;;;;8.00;4.75;;;;;;;12.72;81.80;68178.88;4952382;28;20050;-84
2022/09/23 08:44:31;;;;;;;11.82;5.35;;;;;;;12.84;81.96;68195.19;4952151;28;20044;-82
2022/09/23 08:47:20;;;;;;;;;;;;;;;12.91;80.00;68202.00;4952753;28;20044;-84
2022/09/23 08:49:57;;;;;;;8.25;4.95;;;;;;;12.93;81.09;68204.28;4951541;28;19923;-83
2022/09/23 08:52:34;;;;;;;8.07;4.85;;;;;;;12.91;78.37;68202.00;4983104;28;20049;-84
2022/09/23 08:55:01;;;;;;;7.82;4.43;;;;;;;13.02;78.04;68211.84;4968640;28;20058;-83
2022/09/23 08:57:44;;;;;;;11.48;4.90;;;;;;;13.12;78.13;68231.22;4969657;28;20070;-84
2022/09/23 09:00:19;;;;;;;9.40;4.63;;;;;;;13.23;78.78;68238.38;4964291;28;20050;-82
2022/09/23 09:02:45;;;;;;;9.60;4.72;;;;;;;13.34;77.82;68255.13;4961196;28;20050;-83
2022/09/23 09:05:11;;;;;;;8.57;5.20;;;;;;;13.38;77.81;68254.91;4971305;28;20050;-83
2022/09/23 09:07:38;;;;;;;6.95;4.32;;;;;;;;;;4961344;28;20047;-83
2022/09/23 09:10:13;;;;;;;6.97;4.82;;;;;;;;;;4975565;28;20639;-83
2022/09/23 09:12:43;;;;;;;7.45;4.40;;;;;;;;;;4970545;28;20059;-84
2022/09/23 09:15:11;;;;;;;7.57;5.03;;;;;;;13.60;77.25;68276.09;4971753;28;20202;-84
2022/09/23 09:17:58;;;;;;;7.35;5.22;;;;;;;13.68;76.71;68288.44;4974093;28;20459;-84
2022/09/23 09:20:37;;;;;;;7.22;4.50;;;;;;;13.66;75.65;68286.16;4971923;28;20069;-84
2022/09/23 09:23:33;;;;;;;8.48;5.18;;;;;;;13.72;75.67;68292.44;4977260;28;20043;-83
2022/09/23 09:26:03;;;;;;;12.70;5.72;;;;;;;13.79;75.84;68300.41;4972693;28;20074;-83
2022/09/23 09:28:41;;;;;;;10.80;4.93;;;;;;;13.83;76.76;68304.38;4976308;28;20101;-84
2022/09/23 09:31:21;;;;;;;6.47;4.65;;;;;;;13.86;75.35;68313.13;4961108;28;20050;-83
2022/09/23 09:33:56;;;;;;;9.63;4.70;;;;;;;13.97;76.51;68320.31;4975870;28;20046;-83
2022/09/23 09:36:29;;;;;;;8.48;5.18;;;;;;;;;;4971868;28;20069;-84
2022/09/23 09:38:57;;;;;;;8.68;4.75;;;;;;;13.96;75.95;68319.75;4953631;28;20087;-84
2022/09/23 09:41:26;;;;;;;9.98;5.03;;;;;;;14.04;75.65;68328.28;4967205;28;20043;-84
2022/09/23 09:43:56;;;;;;;9.23;4.95;;;;;;;14.10;74.70;68335.09;4980264;28;20469;-84
2022/09/23 09:46:32;;;;;;;9.40;5.50;;;;;;;;;;4979638;28;20333;-84
2022/09/23 09:49:02;;;;;;;8.60;5.00;;;;;;;14.12;74.78;68336.81;4963744;28;20723;-84
2022/09/23 09:51:28;;;;;;;11.00;5.18;;;;;;;14.16;75.00;68341.94;4977954;28;20053;-84
2022/09/23 09:53:55;;;;;;;7.68;4.93;;;;;;;;;;4978236;28;20031;-83
2022/09/23 09:56:26;;;;;;;11.25;5.15;;;;;;;;;;4954396;29;20135;-83
2022/09/23 09:58:54;;;;;;;8.60;5.22;;;;;;;14.27;74.46;68353.88;4955153;28;20039;-83
2022/09/23 10:01:29;;;;;;;9.25;5.55;;;;;;;14.30;74.78;68357.31;4958445;28;20114;-83
2022/09/23 10:03:56;;;;;;;8.57;4.93;;;;;;;;;;4950589;28;20052;-83
2022/09/23 10:06:33;;;;;;;7.53;5.05;;;;;;;14.42;75.33;68370.38;4942145;28;20055;-83
2022/09/23 10:09:11;;;;;;;8.05;5.10;;;;;;;14.42;74.39;68376.31;4973886;28;20593;-83
2022/09/23 10:11:37;;;;;;;10.40;6.10;;;;;;;14.45;75.50;68373.81;4974472;28;20105;-83
2022/09/23 10:14:05;;;;;;;8.77;5.35;;;;;;;14.51;74.54;68377.94;4974996;28;20812;-84
2022/09/23 10:16:33;;;;;;;9.48;6.38;;;;;;;14.62;74.45;68392.59;4975401;28;20047;-83
2022/09/23 10:18:59;;;;;;;9.55;5.75;;;;;;;;;;4977090;28;20054;-84
2022/09/23 10:21:35;;;;;;;9.23;5.15;;;;;;;14.64;74.74;68395.47;4976763;28;20046;-83
2022/09/23 10:24:04;;;;;;;8.30;4.45;;;;;;;14.63;72.94;68393.75;4956318;28;20454;-84
2022/09/23 10:26:49;;;;;;;8.82;5.45;;;;;;;14.65;73.93;68396.03;4977358;28;20045;-84
2022/09/23 10:29:46;;;;;;;7.70;5.20;;;;;;;14.73;75.01;68404.53;4973831;28;20114;-83
2022/09/23 10:32:27;;;;;;;10.10;5.28;;;;;;;14.79;74.54;68411.41;4980996;28;20414;-83
2022/09/23 10:35:12;;;;;;;10.50;5.47;;;;;;;14.82;74.62;68414.81;4977484;28;20145;-84
2022/09/23 10:37:39;;;;;;;8.57;5.47;;;;;;;;;;4976838;28;20688;-83
2022/09/23 10:46:40;;;;;;;8.10;5.45;;;;;;;;;;4946174;28;20057;-84
2022/09/23 10:49:37;;;;;;;9.95;5.68;;;;;;;15.15;74.30;68451.81;4979713;28;20414;-84
2022/09/23 10:52:44;;;;;;;10.10;5.13;;;;;;;15.34;74.44;68472.88;4960227;28;20046;-85
2022/09/23 10:55:40;;;;;;;8.88;5.68;;;;;;;15.44;73.16;68484.28;4959152;28;20070;-85
2022/09/23 10:58:12;;;;;;;9.35;5.65;;;;;;;;;;4976559;28;20047;-85
2022/09/23 11:01:02;;;;;;;10.07;6.07;;;;;;;15.48;73.19;68488.84;4982265;28;20065;-85
2022/09/23 11:03:27;;;;;;;9.13;5.38;;;;;;;;;;4977304;28;20059;-85
2022/09/23 11:06:43;;;;;;;8.73;5.67;;;;;;;15.61;70.78;68502.50;4982855;28;20050;-85
2022/09/23 11:09:46;;;;;;;8.75;5.72;;;;;;;15.74;73.08;68514.66;4946628;29;20094;-85
2022/09/23 11:12:54;;;;;;;9.07;5.82;;;;;;;15.79;71.69;68517.66;4952038;29;20039;-84
2022/09/23 11:15:38;;;;;;;10.10;4.78;;;;;;;15.85;70.04;68535.22;4999329;28;20043;-85
2022/09/23 11:18:28;;;;;;;7.65;5.53;;;;;;;15.88;72.01;68533.31;4970686;28;20102;-85
2022/09/23 11:21:06;;;;;;;9.07;5.57;;;;;;;15.91;71.97;68536.72;4974176;28;20055;-85
2022/09/23 11:23:54;;;;;;;9.70;5.28;;;;;;;15.91;71.01;68536.72;4958521;28;20042;-85
2022/09/23 11:26:35;;;;;;;7.45;5.68;;;;;;;15.98;71.94;68538.75;4969401;28;20045;-85
2022/09/23 11:29:22;;;;;;;9.30;6.03;;;;;;;16.06;70.12;68553.25;4952486;28;20519;-85
2022/09/23 11:32:09;;;;;;;10.68;5.72;;;;;;;16.16;71.02;68561.38;4978958;28;20042;-85
2022/09/23 11:34:49;;;;;;;9.82;5.82;;;;;;;16.23;70.17;68566.69;4975293;28;20742;-85
2022/09/23 11:37:20;;;;;;;9.05;5.72;;;;;;;16.19;70.28;68560.00;4978382;28;22026;-86
2022/09/23 11:39:56;;;;;;;8.52;5.18;;;;;;;;;;4980436;28;20053;-86
2022/09/23 11:42:29;;;;;;;9.68;5.90;;;;;;;;;;4976715;28;20050;-87
2022/09/23 11:45:01;;;;;;;9.77;6.05;;;;;;;16.34;68.88;68584.59;4975601;28;20051;-86
2022/09/23 11:47:53;;;;;;;9.18;6.00;;;;;;;16.44;69.49;68592.72;4983846;28;20039;-85
2022/09/23 11:50:26;;;;;;;10.18;5.80;;;;;;;16.52;67.04;68604.53;4953049;28;20514;-86
2022/09/23 11:53:30;;;;;;;12.02;6.22;;;;;;;16.51;67.07;68600.13;4979961;28;20046;-87
2022/09/23 11:56:09;;;;;;;9.70;5.57;;;;;;;16.46;68.08;68595.56;4980193;28;20058;-86
2022/09/23 11:58:41;;;;;;;10.25;5.57;;;;;;;16.62;67.88;68613.25;4976619;28;20035;-86
2022/09/23 12:01:15;;;;;;;7.25;5.55;;;;;;;16.62;67.81;68613.25;4986990;28;20375;-86
2022/09/23 12:03:40;;;;;;;10.35;5.82;;;;;;;16.63;67.31;68616.50;5033184;22;20049;-80
2022/09/23 12:06:11;;;;;;;11.25;5.40;;;;;;;16.69;67.32;68623.34;5029746;28;20061;-81
2022/09/23 12:08:36;;;;;;;8.02;5.28;;;;;;;16.67;66.06;68615.69;5030316;28;20487;-80
2022/09/23 12:11:20;;;;;;;7.88;5.32;;;;;;;16.72;65.65;68626.78;5037709;28;20062;-81
2022/09/23 12:14:07;;;;;;;9.80;5.43;;;;;;;16.79;66.93;68632.06;5032442;28;20196;-82
2022/09/23 12:17:10;;;;;;;7.65;4.57;;;;;;;16.75;66.24;68629.63;5039387;28;20403;-79
2022/09/23 12:19:54;;;;;;;8.45;5.32;;;;;;;16.84;67.75;68640.47;5025368;28;20568;-82
2022/09/23 12:22:23;;;;;;;8.80;4.82;;;;;;;16.88;67.63;68644.47;5035038;28;20606;-81
2022/09/23 12:25:16;;;;;;;7.65;5.05;;;;;;;16.88;66.27;68639.66;5035632;28;20047;-81
2022/09/23 12:27:44;;;;;;;7.80;5.00;;;;;;;;;;5039882;28;20063;-81
2022/09/23 12:30:24;;;;;;;7.25;4.60;;;;;;;17.01;66.48;68656.03;5047184;28;20045;-81
2022/09/23 12:32:50;;;;;;;9.63;5.22;;;;;;;17.01;65.33;68659.28;5049365;28;20037;-79
2022/09/23 12:35:25;;;;;;;9.05;5.38;;;;;;;17.02;64.95;68657.72;5048991;28;20119;-81
2022/09/23 12:37:52;;;;;;;7.47;4.75;;;;;;;17.09;65.29;68667.84;5026771;28;20052;-82
2022/09/23 12:40:31;;;;;;;9.52;4.80;;;;;;;17.09;64.51;68665.16;5035080;28;20037;-80